createdAt,value
2022-12-03T00:03:16.177Z,8.56
2022-12-03T00:08:19.716Z,8.36
2022-12-03T00:13:24.506Z,8.24
2022-12-03T00:18:28.035Z,8.37
2022-12-03T00:23:31.428Z,8.42
2022-12-03T00:28:36.240Z,8.44
2022-12-03T00:33:39.615Z,8.25
2022-12-03T00:38:42.998Z,8.37
2022-12-03T00:43:47.805Z,8.47
2022-12-03T00:48:51.218Z,8.39
2022-12-03T00:53:54.661Z,8.42
2022-12-03T00:58:59.452Z,8.07
2022-12-03T01:04:02.829Z,8.17
2022-12-03T01:09:18.273Z,7.86
2022-12-03T01:14:23.102Z,8.26
2022-12-03T01:19:26.500Z,8.15
2022-12-03T01:24:29.864Z,7.81
2022-12-03T01:29:34.707Z,7.82
2022-12-03T01:34:38.193Z,8.01
2022-12-03T01:39:41.739Z,8.16
2022-12-03T01:44:46.951Z,7.92
2022-12-03T01:49:53.379Z,7.98
2022-12-03T01:54:58.686Z,7.86
2022-12-03T02:00:03.603Z,7.89
2022-12-03T02:05:17.073Z,7.73
2022-12-03T02:10:23.714Z,7.61
2022-12-03T02:15:28.493Z,7.74
2022-12-03T02:20:32.488Z,7.76
2022-12-03T02:25:38.024Z,7.53
2022-12-03T02:30:41.496Z,7.68
2022-12-03T02:35:45.312Z,7.65
2022-12-03T02:40:51.457Z,7.43
2022-12-03T02:45:56.276Z,7.60
2022-12-03T02:51:02.669Z,7.82
2022-12-03T02:56:08.380Z,7.25
2022-12-03T03:01:11.880Z,7.55
2022-12-03T03:06:16.033Z,7.57
2022-12-03T03:11:20.931Z,7.79
2022-12-03T03:16:24.442Z,7.72
2022-12-03T03:21:28.025Z,7.58
2022-12-03T03:26:32.838Z,7.60
2022-12-03T03:31:36.409Z,7.62
2022-12-03T03:36:40.224Z,7.76
2022-12-03T03:41:46.837Z,7.63
2022-12-03T03:46:50.244Z,8.07
2022-12-03T03:51:53.768Z,8.19
2022-12-03T03:56:58.701Z,8.09
2022-12-03T04:02:02.086Z,8.14
2022-12-03T04:07:05.495Z,7.97
2022-12-03T04:12:27.969Z,8.05
2022-12-03T04:17:31.356Z,7.72
2022-12-03T04:22:40.684Z,7.95
2022-12-03T04:28:03.208Z,7.84
2022-12-03T04:33:24.283Z,8.07
2022-12-03T04:38:27.753Z,8.15
2022-12-03T04:43:55.738Z,7.71
2022-12-03T04:48:59.133Z,8.04
2022-12-03T04:54:02.698Z,7.89
2022-12-03T04:59:11.436Z,7.49
2022-12-03T05:04:19.242Z,7.62
2022-12-03T05:09:22.685Z,7.81
2022-12-03T05:14:27.475Z,7.68
2022-12-03T05:19:44.745Z,7.60
2022-12-03T05:24:48.193Z,7.21
2022-12-03T05:29:53.440Z,7.17
2022-12-03T05:34:57.019Z,7.04
2022-12-03T05:40:01.116Z,7.16
2022-12-03T05:45:07.102Z,7.15
2022-12-03T05:50:10.853Z,7.20
2022-12-03T05:55:14.521Z,7.04
2022-12-03T06:00:21.294Z,7.23
2022-12-03T06:05:25.069Z,7.27
2022-12-03T06:10:28.777Z,7.26
2022-12-03T06:15:36.308Z,7.43
2022-12-03T06:20:43.834Z,7.41
2022-12-03T06:25:47.273Z,7.23
2022-12-03T06:30:52.209Z,7.13
2022-12-03T06:35:55.641Z,7.03
2022-12-03T06:40:59.109Z,7.32
2022-12-03T06:46:03.982Z,7.34
2022-12-03T06:51:07.463Z,7.30
2022-12-03T06:56:10.897Z,7.49
2022-12-03T07:01:15.790Z,7.57
2022-12-03T07:06:19.269Z,7.51
2022-12-03T07:11:40.044Z,7.22
2022-12-03T07:16:44.820Z,7.13
2022-12-03T07:21:48.222Z,7.51
2022-12-03T07:26:51.651Z,7.21
2022-12-03T07:31:56.533Z,7.47
2022-12-03T07:36:59.933Z,7.13
2022-12-03T07:42:03.392Z,7.24
2022-12-03T07:47:08.339Z,7.57
2022-12-03T07:52:11.973Z,7.27
2022-12-03T07:57:15.466Z,7.20
2022-12-03T08:02:21.764Z,6.86
2022-12-03T08:07:25.572Z,7.25
2022-12-03T08:12:40.027Z,6.89
2022-12-03T08:17:46.118Z,6.93
2022-12-03T08:22:51.820Z,6.97
2022-12-03T08:27:57.853Z,7.00
2022-12-03T08:33:03.085Z,7.00
2022-12-03T08:38:11.109Z,7.31
2022-12-03T08:43:19.413Z,7.24
2022-12-03T08:48:28.030Z,7.58
2022-12-03T08:53:34.290Z,7.36
2022-12-03T08:58:39.977Z,7.15
2022-12-03T09:03:49.104Z,6.72
2022-12-03T09:08:52.624Z,7.14
2022-12-03T09:13:56.084Z,7.13
2022-12-03T09:19:00.967Z,6.88
2022-12-03T09:24:04.542Z,7.31
2022-12-03T09:29:12.101Z,7.50
2022-12-03T09:34:17.649Z,7.38
2022-12-03T09:39:21.065Z,7.39
2022-12-03T09:44:24.499Z,7.43
2022-12-03T09:49:31.849Z,7.57
2022-12-03T09:54:37.084Z,7.17
2022-12-03T09:59:42.951Z,7.49
2022-12-03T10:04:47.935Z,7.10
2022-12-03T10:09:51.849Z,7.53
2022-12-03T10:14:56.825Z,7.37
2022-12-03T10:20:02.470Z,7.68
2022-12-03T10:25:08.854Z,7.69
2022-12-03T10:30:17.707Z,7.63
2022-12-03T10:35:24.086Z,7.61
2022-12-03T10:40:31.706Z,7.80
2022-12-03T10:45:35.123Z,7.73
2022-12-03T10:50:47.990Z,7.91
2022-12-03T10:55:52.541Z,7.90
2022-12-03T11:00:57.525Z,7.76
2022-12-03T11:06:02.837Z,8.05
2022-12-03T11:11:08.179Z,7.95
2022-12-03T11:16:11.769Z,8.28
2022-12-03T11:21:16.733Z,8.24
2022-12-03T11:26:52.201Z,8.38
2022-12-03T11:31:55.613Z,8.19
2022-12-03T11:37:28.960Z,8.60
2022-12-03T11:42:40.025Z,8.76
2022-12-03T11:47:45.720Z,8.41
2022-12-03T11:52:55.153Z,8.25
2022-12-03T11:57:59.816Z,8.01
2022-12-03T12:03:03.438Z,8.34
2022-12-03T12:08:19.893Z,8.27
2022-12-03T12:13:27.987Z,8.44
2022-12-03T12:18:38.298Z,8.27
2022-12-03T12:23:43.144Z,8.57
2022-12-03T12:28:46.534Z,8.48
2022-12-03T12:33:49.989Z,8.51
2022-12-03T12:38:54.824Z,8.15
2022-12-03T12:43:58.404Z,8.21
2022-12-03T12:49:02.031Z,8.22
2022-12-03T12:54:11.262Z,8.13
2022-12-03T12:59:17.910Z,8.02
2022-12-03T13:04:23.152Z,8.18
2022-12-03T13:09:28.218Z,8.22
2022-12-03T13:14:33.208Z,7.78
2022-12-03T13:19:46.645Z,7.86
2022-12-03T13:24:55.972Z,8.13
2022-12-03T13:30:01.472Z,8.05
2022-12-03T13:35:07.318Z,8.24
2022-12-03T13:40:22.005Z,7.83
2022-12-03T13:45:34.788Z,8.03
2022-12-03T13:50:40.758Z,7.95
2022-12-03T13:55:47.785Z,7.91
2022-12-03T14:00:51.339Z,8.09
2022-12-03T14:05:54.763Z,8.27
2022-12-03T14:11:00.834Z,8.04
2022-12-03T14:16:04.913Z,8.15
2022-12-03T14:21:08.398Z,7.73
2022-12-03T14:26:13.154Z,7.82
2022-12-03T14:31:16.668Z,8.12
2022-12-03T14:36:20.086Z,8.02
2022-12-03T14:41:42.510Z,8.06
2022-12-03T14:46:45.964Z,8.06
2022-12-03T14:51:49.431Z,7.97
2022-12-03T14:56:54.257Z,8.09
2022-12-03T15:01:57.804Z,7.81
2022-12-03T15:07:01.433Z,7.86
2022-12-03T15:12:07.019Z,7.85
2022-12-03T15:17:10.505Z,7.97
2022-12-03T15:22:14.028Z,7.70
2022-12-03T15:27:18.789Z,7.66
2022-12-03T15:32:22.204Z,7.32
2022-12-03T15:37:27.576Z,7.70
2022-12-03T15:42:32.465Z,7.73
2022-12-03T15:47:35.894Z,7.71
2022-12-03T15:52:39.274Z,7.98
2022-12-03T15:57:44.384Z,7.55
2022-12-03T16:02:52.695Z,7.83
2022-12-03T16:07:56.643Z,7.61
2022-12-03T16:13:01.557Z,7.54
2022-12-03T16:18:05.296Z,7.51
2022-12-03T16:23:08.702Z,7.43
2022-12-03T16:28:13.489Z,7.38
2022-12-03T16:33:17.740Z,7.43
2022-12-03T16:38:23.549Z,7.55
2022-12-03T16:43:28.382Z,7.30
2022-12-03T16:48:31.844Z,7.44
2022-12-03T16:53:35.326Z,7.31
2022-12-03T16:58:40.181Z,7.47
2022-12-03T17:03:43.529Z,7.00
2022-12-03T17:08:49.716Z,7.28
2022-12-03T17:13:55.013Z,7.35
2022-12-03T17:18:58.405Z,7.30
2022-12-03T17:24:01.821Z,7.42
2022-12-03T17:29:06.553Z,7.62
2022-12-03T17:34:10.000Z,7.78
2022-12-03T17:39:13.557Z,7.61
2022-12-03T17:44:21.146Z,7.67
2022-12-03T17:49:31.147Z,7.67
2022-12-03T17:55:01.761Z,7.60
2022-12-03T18:00:02.567Z,7.58
2022-12-03T18:05:15.634Z,7.51
2022-12-03T18:10:19.134Z,7.70
2022-12-03T18:15:24.031Z,7.70
2022-12-03T18:20:27.594Z,7.63
2022-12-03T18:25:31.268Z,7.61
2022-12-03T18:30:36.120Z,7.76
2022-12-03T18:35:39.559Z,7.85
2022-12-03T18:40:43.926Z,7.38
2022-12-03T18:45:48.799Z,7.42
2022-12-03T18:50:52.374Z,7.60
2022-12-03T18:55:56.548Z,7.42
2022-12-03T19:01:01.608Z,7.39
2022-12-03T19:06:05.550Z,7.81
2022-12-03T19:11:09.760Z,7.36
2022-12-03T19:16:17.265Z,7.71
2022-12-03T19:21:20.969Z,7.78
2022-12-03T19:26:25.681Z,7.69
2022-12-03T19:31:33.296Z,7.58
2022-12-03T19:36:36.839Z,7.58
2022-12-03T19:41:41.800Z,7.44
2022-12-03T19:46:46.770Z,7.51
2022-12-03T19:51:50.324Z,7.52
2022-12-03T19:56:53.794Z,7.46
2022-12-03T20:01:58.692Z,7.48
2022-12-03T20:07:02.213Z,7.53
2022-12-03T20:12:05.844Z,7.31
2022-12-03T20:17:10.841Z,7.46
2022-12-03T20:22:14.251Z,7.70
2022-12-03T20:27:22.650Z,7.59
2022-12-03T20:32:27.977Z,7.62
2022-12-03T20:37:32.139Z,7.68
2022-12-03T20:42:35.472Z,7.29
2022-12-03T20:47:40.214Z,7.72
2022-12-03T20:53:03.268Z,7.80
2022-12-03T20:58:07.039Z,7.59
2022-12-03T21:03:11.858Z,7.68
2022-12-03T21:08:16.960Z,7.56
2022-12-03T21:13:32.274Z,7.58
2022-12-03T21:18:37.439Z,7.25
2022-12-03T21:23:41.256Z,7.16
2022-12-03T21:28:46.305Z,7.30
2022-12-03T21:33:51.181Z,7.38
2022-12-03T21:38:54.582Z,7.36
2022-12-03T21:43:58.235Z,7.43
2022-12-03T21:49:03.037Z,7.53
2022-12-03T21:54:06.754Z,7.30
2022-12-03T21:59:10.237Z,7.30
2022-12-03T22:04:15.070Z,7.45
2022-12-03T22:09:21.813Z,7.50
2022-12-03T22:14:29.766Z,7.61
2022-12-03T22:19:34.556Z,7.55
2022-12-03T22:24:38.576Z,7.43
2022-12-03T22:29:42.120Z,7.49
2022-12-03T22:34:46.943Z,7.67
2022-12-03T22:39:50.316Z,7.72
2022-12-03T22:44:53.713Z,7.69
2022-12-03T22:49:58.517Z,7.62
2022-12-03T22:55:01.900Z,7.49
2022-12-03T23:00:09.851Z,7.59
2022-12-03T23:05:14.711Z,7.55
2022-12-03T23:10:18.362Z,7.61
2022-12-03T23:15:21.765Z,7.45
2022-12-03T23:20:26.963Z,7.28
2022-12-03T23:25:30.394Z,7.52
2022-12-03T23:30:36.139Z,7.36
2022-12-03T23:35:41.083Z,7.39
2022-12-03T23:40:48.054Z,7.32
2022-12-03T23:45:51.881Z,7.32
2022-12-03T23:50:56.739Z,7.31
2022-12-03T23:56:00.116Z,7.51
